createdAt,value
2019-04-26T00:01:55.733Z,72.84
2019-04-26T00:04:24.591Z,72.43
2019-04-26T00:06:53.457Z,72.64
2019-04-26T00:09:29.053Z,73.07
2019-04-26T00:12:16.403Z,72.48
2019-04-26T00:15:14.876Z,72.78
2019-04-26T00:17:46.208Z,73.37
2019-04-26T00:20:14.875Z,73.26
2019-04-26T00:22:42.803Z,73.59
2019-04-26T00:25:11.405Z,74.49
2019-04-26T00:27:40.721Z,74.00
2019-04-26T00:30:08.642Z,73.78
2019-04-26T00:32:37.240Z,74.15
2019-04-26T00:35:06.170Z,73.58
2019-04-26T00:37:34.363Z,73.74
2019-04-26T00:40:02.375Z,74.73
2019-04-26T00:42:31.406Z,74.12
2019-04-26T00:45:00.364Z,73.71
2019-04-26T00:47:29.102Z,73.45
2019-04-26T00:49:58.276Z,73.42
2019-04-26T00:52:26.527Z,74.01
2019-04-26T00:54:54.632Z,73.86
2019-04-26T00:57:24.454Z,73.97
2019-04-26T00:59:52.730Z,74.08
2019-04-26T01:02:35.872Z,74.83
2019-04-26T01:05:04.316Z,74.60
2019-04-26T01:07:32.869Z,73.97
2019-04-26T01:10:01.141Z,72.37
2019-04-26T01:12:29.301Z,73.56
2019-04-26T01:14:58.707Z,73.50
2019-04-26T01:17:26.928Z,73.47
2019-04-26T01:19:55.375Z,73.88
2019-04-26T01:22:27.617Z,73.40
2019-04-26T01:24:56.273Z,73.80
2019-04-26T01:27:26.326Z,73.66
2019-04-26T01:29:58.422Z,73.10
2019-04-26T01:32:28.305Z,72.72
2019-04-26T01:34:56.938Z,72.46
2019-04-26T01:37:26.695Z,71.72
2019-04-26T01:39:59.737Z,72.06
2019-04-26T01:42:55.856Z,72.06
2019-04-26T01:45:32.102Z,72.07
2019-04-26T01:48:07.766Z,72.03
2019-04-26T01:50:36.015Z,72.08
2019-04-26T01:53:05.540Z,72.46
2019-04-26T01:55:34.158Z,72.40
2019-04-26T01:58:04.097Z,71.85
2019-04-26T02:01:04.171Z,72.28
2019-04-26T02:03:32.466Z,72.58
2019-04-26T02:06:02.167Z,72.42
2019-04-26T02:08:30.760Z,72.19
2019-04-26T02:10:58.956Z,72.76
2019-04-26T02:13:27.467Z,72.96
2019-04-26T02:15:55.702Z,72.69
2019-04-26T02:18:25.433Z,72.61
2019-04-26T02:21:01.781Z,72.28
2019-04-26T02:23:41.385Z,72.50
2019-04-26T02:26:32.570Z,72.44
2019-04-26T02:29:03.042Z,72.28
2019-04-26T02:31:33.734Z,73.17
2019-04-26T02:34:02.982Z,72.86
2019-04-26T02:36:52.053Z,73.02
2019-04-26T02:39:05.394Z,73.11
2019-04-26T02:41:35.321Z,72.76
2019-04-26T02:44:08.114Z,73.06
2019-04-26T02:46:45.416Z,72.50
2019-04-26T02:49:32.960Z,72.36
2019-04-26T02:52:39.302Z,72.86
2019-04-26T02:55:12.766Z,72.51
2019-04-26T02:57:44.463Z,72.25
2019-04-26T03:00:13.529Z,72.52
2019-04-26T03:02:42.344Z,71.90
2019-04-26T03:05:11.202Z,71.77
2019-04-26T03:08:02.165Z,72.11
2019-04-26T03:10:36.622Z,72.21
2019-04-26T03:13:08.362Z,72.61
2019-04-26T03:15:54.022Z,72.71
2019-04-26T03:18:43.896Z,72.23
2019-04-26T03:21:21.750Z,72.82
2019-04-26T03:24:01.300Z,73.13
2019-04-26T03:26:43.319Z,73.26
2019-04-26T03:29:29.726Z,73.75
2019-04-26T03:32:16.596Z,73.54
2019-04-26T03:34:54.814Z,72.39
2019-04-26T03:37:56.859Z,73.73
2019-04-26T03:40:37.914Z,72.58
2019-04-26T03:43:20.429Z,73.35
2019-04-26T03:45:59.918Z,73.02
2019-04-26T03:48:50.456Z,72.74
2019-04-26T03:51:31.796Z,72.98
2019-04-26T03:54:06.690Z,72.56
2019-04-26T03:57:29.286Z,73.03
2019-04-26T04:00:37.173Z,72.98
2019-04-26T04:03:32.295Z,73.14
2019-04-26T04:06:01.066Z,73.36
2019-04-26T04:08:42.371Z,74.02
2019-04-26T04:11:15.194Z,73.57
2019-04-26T04:13:56.084Z,74.18
2019-04-26T04:16:41.374Z,74.35
2019-04-26T04:19:25.418Z,74.53
2019-04-26T04:22:00.198Z,74.70
2019-04-26T04:24:51.350Z,75.04
2019-04-26T04:27:31.280Z,75.27
2019-04-26T04:30:40.641Z,75.13
2019-04-26T04:33:45.207Z,75.39
2019-04-26T04:36:21.938Z,75.53
2019-04-26T04:39:25.251Z,75.32
2019-04-26T04:42:25.947Z,75.21
2019-04-26T04:45:46.314Z,75.22
2019-04-26T04:48:31.517Z,75.10
2019-04-26T04:51:12.233Z,75.06
2019-04-26T04:54:05.043Z,75.01
2019-04-26T04:56:55.219Z,75.45
2019-04-26T04:59:30.731Z,74.78
2019-04-26T05:02:22.999Z,74.68
2019-04-26T05:05:17.542Z,74.23
2019-04-26T05:08:18.404Z,73.52
2019-04-26T05:10:55.161Z,72.98
2019-04-26T05:13:34.677Z,73.17
2019-04-26T05:17:03.050Z,72.63
2019-04-26T05:19:53.141Z,72.07
2019-04-26T05:22:47.773Z,72.29
2019-04-26T05:26:14.652Z,70.74
2019-04-26T05:28:55.898Z,71.81
2019-04-26T05:31:41.378Z,71.57
2019-04-26T05:34:42.680Z,71.14
2019-04-26T05:37:55.227Z,71.37
2019-04-26T05:40:51.441Z,71.81
2019-04-26T05:44:05.450Z,71.53
2019-04-26T05:47:46.633Z,71.82
2019-04-26T05:51:22.143Z,71.65
2019-04-26T05:54:41.491Z,72.53
2019-04-26T05:57:51.077Z,73.33
2019-04-26T06:00:30.723Z,73.97
2019-04-26T06:03:23.527Z,74.41
2019-04-26T06:06:37.508Z,74.32
2019-04-26T06:09:58.909Z,74.63
2019-04-26T06:12:37.819Z,74.05
2019-04-26T06:15:35.202Z,73.99
2019-04-26T06:18:44.929Z,74.33
2019-04-26T06:21:26.272Z,74.76
2019-04-26T06:24:23.251Z,75.57
2019-04-26T06:27:25.885Z,76.78
2019-04-26T06:30:04.201Z,77.16
2019-04-26T06:32:55.943Z,77.73
2019-04-26T06:35:19.874Z,77.87
2019-04-26T06:39:04.246Z,78.18
2019-04-26T06:42:05.984Z,78.65
2019-04-26T06:44:49.588Z,79.29
2019-04-26T06:47:27.399Z,79.24
2019-04-26T06:50:33.231Z,80.12
2019-04-26T06:53:35.013Z,80.53
2019-04-26T06:56:39.176Z,81.16
2019-04-26T06:59:37.005Z,82.12
2019-04-26T07:02:15.317Z,82.55
2019-04-26T07:05:22.514Z,83.32
2019-04-26T07:08:32.338Z,84.12
2019-04-26T07:12:03.758Z,84.44
2019-04-26T07:15:27.723Z,84.70
2019-04-26T07:17:57.117Z,85.36
2019-04-26T07:20:48.659Z,85.91
2019-04-26T07:27:03.582Z,86.61
2019-04-26T07:30:09.873Z,87.22
2019-04-26T07:33:22.741Z,87.54
2019-04-26T07:36:36.628Z,88.93
2019-04-26T07:39:31.981Z,87.61
2019-04-26T07:42:53.052Z,87.19
2019-04-26T07:45:44.957Z,87.74
2019-04-26T07:49:08.917Z,89.13
2019-04-26T07:52:04.310Z,88.74
2019-04-26T07:55:17.932Z,88.62
2019-04-26T07:58:09.049Z,88.94
2019-04-26T08:00:48.774Z,89.15
2019-04-26T08:03:35.908Z,89.75
2019-04-26T08:06:11.566Z,89.94
2019-04-26T08:08:48.147Z,89.67
2019-04-26T08:11:20.557Z,88.91
2019-04-26T08:14:09.504Z,88.74
2019-04-26T08:17:04.976Z,87.70
2019-04-26T08:19:40.903Z,88.49
2019-04-26T08:22:19.699Z,88.67
2019-04-26T08:24:44.163Z,88.41
2019-04-26T08:27:24.013Z,87.75
2019-04-26T08:29:57.032Z,86.75
2019-04-26T08:32:28.225Z,88.37
2019-04-26T08:35:08.173Z,88.20
2019-04-26T08:37:46.640Z,88.46
2019-04-26T08:40:23.074Z,87.82
2019-04-26T08:42:57.369Z,88.44
2019-04-26T08:45:33.854Z,88.04
2019-04-26T08:48:22.386Z,86.77
2019-04-26T08:50:51.479Z,87.23
2019-04-26T08:53:19.819Z,87.86
2019-04-26T08:55:48.178Z,87.52
2019-04-26T08:58:18.590Z,87.70
2019-04-26T09:01:07.611Z,88.44
2019-04-26T09:03:44.886Z,88.05
2019-04-26T09:06:30.582Z,87.09
2019-04-26T09:09:00.524Z,87.24
2019-04-26T09:11:33.455Z,87.88
2019-04-26T09:14:00.649Z,87.91
2019-04-26T09:16:28.863Z,86.51
2019-04-26T09:18:59.684Z,87.10
2019-04-26T09:21:55.205Z,87.28
2019-04-26T09:24:32.042Z,86.51
2019-04-26T09:27:09.126Z,86.95
2019-04-26T09:29:47.858Z,88.33
2019-04-26T09:32:27.888Z,87.14
2019-04-26T09:34:55.473Z,87.99
2019-04-26T09:37:31.220Z,85.25
2019-04-26T09:40:09.664Z,86.46
2019-04-26T09:42:40.937Z,85.41
2019-04-26T09:45:31.792Z,86.22
2019-04-26T09:48:11.420Z,86.64
2019-04-26T09:50:45.354Z,87.90
2019-04-26T09:53:13.212Z,87.17
2019-04-26T09:55:41.799Z,85.89
2019-04-26T09:58:10.048Z,86.80
2019-04-26T10:00:38.035Z,86.61
2019-04-26T10:03:09.424Z,84.76
2019-04-26T10:05:36.622Z,85.74
2019-04-26T10:08:08.392Z,85.59
2019-04-26T10:10:35.212Z,85.13
2019-04-26T10:13:29.497Z,85.71
2019-04-26T10:16:22.699Z,86.80
2019-04-26T10:18:58.324Z,86.38
2019-04-26T10:21:26.224Z,86.85
2019-04-26T10:23:54.458Z,85.54
2019-04-26T10:26:23.145Z,86.35
2019-04-26T10:28:53.370Z,87.05
2019-04-26T10:31:21.297Z,86.15
2019-04-26T10:33:49.852Z,87.60
2019-04-26T10:36:18.315Z,87.57
2019-04-26T10:38:46.368Z,87.91
2019-04-26T10:41:15.065Z,86.10
2019-04-26T10:43:44.026Z,87.53
2019-04-26T10:46:11.201Z,86.31
2019-04-26T10:48:41.347Z,87.00
2019-04-26T10:51:09.839Z,87.16
2019-04-26T10:53:50.483Z,88.11
2019-04-26T10:56:47.201Z,89.08
2019-04-26T10:59:34.928Z,87.27
2019-04-26T11:02:07.284Z,86.94
2019-04-26T11:04:37.435Z,87.74
2019-04-26T11:07:05.498Z,87.59
2019-04-26T11:09:33.475Z,87.06
2019-04-26T11:12:01.339Z,87.91
2019-04-26T11:14:29.334Z,88.35
2019-04-26T11:16:57.806Z,86.95
2019-04-26T11:19:26.062Z,86.23
2019-04-26T11:21:54.894Z,87.00
2019-04-26T11:24:24.211Z,87.55
2019-04-26T11:26:52.442Z,88.59
2019-04-26T11:29:20.659Z,87.64
2019-04-26T11:31:48.633Z,87.89
2019-04-26T11:34:19.304Z,87.89
2019-04-26T11:36:47.960Z,88.57
2019-04-26T11:39:16.473Z,87.55
2019-04-26T11:41:45.145Z,87.80
2019-04-26T11:44:13.640Z,88.49
2019-04-26T11:46:45.023Z,88.11
2019-04-26T11:49:12.421Z,87.68
2019-04-26T11:51:40.411Z,87.55
2019-04-26T11:54:08.594Z,88.35
2019-04-26T11:56:37.594Z,85.68
2019-04-26T11:59:06.914Z,84.94
2019-04-26T12:01:36.731Z,84.86
2019-04-26T12:04:32.134Z,85.52
2019-04-26T12:07:29.053Z,83.13
2019-04-26T12:09:58.532Z,83.06
2019-04-26T12:12:26.473Z,82.40
2019-04-26T12:14:55.020Z,84.82
2019-04-26T12:17:26.821Z,80.98
2019-04-26T12:19:53.594Z,79.70
2019-04-26T12:22:22.239Z,82.09
2019-04-26T12:24:50.509Z,82.28
2019-04-26T12:27:18.929Z,82.68
2019-04-26T12:29:48.279Z,82.15
2019-04-26T12:32:17.303Z,78.95
2019-04-26T12:34:45.559Z,80.26
2019-04-26T12:37:19.717Z,82.54
2019-04-26T12:39:43.990Z,80.12
2019-04-26T12:42:13.842Z,82.01
2019-04-26T12:45:07.168Z,82.57
2019-04-26T12:47:55.996Z,81.88
2019-04-26T12:50:24.287Z,82.11
2019-04-26T12:52:55.671Z,83.08
2019-04-26T12:55:22.495Z,84.30
2019-04-26T12:57:50.784Z,85.39
2019-04-26T13:00:23.726Z,86.78
2019-04-26T13:02:54.310Z,85.00
2019-04-26T13:05:24.009Z,84.25
2019-04-26T13:07:53.302Z,82.30
2019-04-26T13:10:35.437Z,83.77
2019-04-26T13:13:11.719Z,85.29
2019-04-26T13:16:21.686Z,85.18
2019-04-26T13:18:49.588Z,86.84
2019-04-26T13:21:17.865Z,84.34
2019-04-26T13:23:48.145Z,85.82
2019-04-26T13:26:15.523Z,85.66
2019-04-26T13:28:43.745Z,87.20
2019-04-26T13:31:12.445Z,85.12
2019-04-26T13:33:40.623Z,86.28
2019-04-26T13:36:08.588Z,86.21
2019-04-26T13:38:39.299Z,85.89
2019-04-26T13:41:06.375Z,86.59
2019-04-26T13:43:34.720Z,86.82
2019-04-26T13:46:18.083Z,87.30
2019-04-26T13:48:51.291Z,87.32
2019-04-26T13:51:20.049Z,86.90
2019-04-26T13:53:48.357Z,83.80
2019-04-26T13:56:17.040Z,85.45
2019-04-26T13:58:45.303Z,84.35
2019-04-26T14:01:14.722Z,84.97
2019-04-26T14:03:42.942Z,85.04
2019-04-26T14:06:11.098Z,82.86
2019-04-26T14:08:39.974Z,84.48
2019-04-26T14:11:07.902Z,84.02
2019-04-26T14:13:36.500Z,81.83
2019-04-26T14:16:05.245Z,82.19
2019-04-26T14:18:34.554Z,82.20
2019-04-26T14:21:03.670Z,82.44
2019-04-26T14:23:49.462Z,83.56
2019-04-26T14:26:21.931Z,84.95
2019-04-26T14:28:54.305Z,82.18
2019-04-26T14:31:21.038Z,81.24
2019-04-26T14:33:49.319Z,82.91
2019-04-26T14:36:18.622Z,83.27
2019-04-26T14:38:46.706Z,82.27
2019-04-26T14:41:21.941Z,83.54
2019-04-26T14:43:44.704Z,83.28
2019-04-26T14:46:14.525Z,81.85
2019-04-26T14:48:44.779Z,82.40
2019-04-26T14:51:16.904Z,81.68
2019-04-26T14:53:43.750Z,79.37
2019-04-26T14:56:11.979Z,76.77
2019-04-26T14:58:41.863Z,77.21
2019-04-26T15:01:14.900Z,75.22
2019-04-26T15:03:51.506Z,72.90
2019-04-26T15:06:26.552Z,65.74
2019-04-26T15:08:55.239Z,61.68
2019-04-26T15:11:24.069Z,63.16
2019-04-26T15:13:54.470Z,63.67
2019-04-26T15:16:24.454Z,63.46
2019-04-26T15:18:53.180Z,59.80
2019-04-26T15:21:22.829Z,63.92
2019-04-26T15:23:55.397Z,67.26
2019-04-26T15:26:29.381Z,71.84
2019-04-26T15:28:54.342Z,72.14
2019-04-26T15:31:24.986Z,67.89
2019-04-26T15:33:53.049Z,66.72
2019-04-26T15:36:23.133Z,61.73
2019-04-26T15:38:52.845Z,61.73
2019-04-26T15:41:34.398Z,61.29
2019-04-26T15:44:20.311Z,63.98
2019-04-26T15:47:05.883Z,68.20
2019-04-26T15:49:40.594Z,70.87
2019-04-26T15:52:09.216Z,71.25
2019-04-26T15:54:37.598Z,71.55
2019-04-26T15:57:06.906Z,73.49
2019-04-26T15:59:35.184Z,76.15
2019-04-26T16:02:03.470Z,77.91
2019-04-26T16:04:32.398Z,74.70
2019-04-26T16:07:02.456Z,74.99
2019-04-26T16:09:32.662Z,73.87
2019-04-26T16:12:01.002Z,74.51
2019-04-26T16:14:36.520Z,75.04
2019-04-26T16:17:04.829Z,76.42
2019-04-26T16:19:33.719Z,75.12
2019-04-26T16:22:02.964Z,75.14
2019-04-26T16:24:34.536Z,74.21
2019-04-26T16:27:04.779Z,77.33
2019-04-26T16:29:50.937Z,76.56
2019-04-26T16:32:43.276Z,76.04
2019-04-26T16:35:13.553Z,77.13
2019-04-26T16:37:43.683Z,77.75
2019-04-26T16:42:42.792Z,77.98
2019-04-26T16:45:12.339Z,77.82
2019-04-26T16:47:45.105Z,77.42
2019-04-26T16:50:14.939Z,75.71
2019-04-26T16:52:47.570Z,76.76
2019-04-26T16:55:20.504Z,76.77
2019-04-26T16:57:53.598Z,76.48
2019-04-26T17:00:16.397Z,74.55
2019-04-26T17:00:31.847Z,78.22
2019-04-26T17:02:44.696Z,76.33
2019-04-26T17:05:21.048Z,76.69
2019-04-26T17:07:43.743Z,75.77
2019-04-26T17:10:16.571Z,77.35
2019-04-26T17:12:46.279Z,78.10
2019-04-26T17:15:17.421Z,76.07
2019-04-26T17:17:45.192Z,76.24
2019-04-26T17:20:14.769Z,76.95
2019-04-26T17:23:03.221Z,76.20
2019-04-26T17:25:59.104Z,76.21
2019-04-26T17:28:27.902Z,76.38
2019-04-26T17:30:55.833Z,77.18
2019-04-26T17:33:28.023Z,76.07
2019-04-26T17:35:54.586Z,76.66
2019-04-26T17:38:22.893Z,76.83
2019-04-26T17:40:50.846Z,77.63
2019-04-26T17:43:21.103Z,78.29
2019-04-26T17:45:49.165Z,78.19
2019-04-26T17:48:17.404Z,78.39
2019-04-26T17:50:45.724Z,77.90
2019-04-26T17:53:26.233Z,77.51
2019-04-26T17:55:50.965Z,77.81
2019-04-26T17:58:30.009Z,77.11
2019-04-26T18:00:49.213Z,77.12
2019-04-26T18:03:16.943Z,77.12
2019-04-26T18:05:56.777Z,78.25
2019-04-26T18:08:33.281Z,79.66
2019-04-26T18:10:45.007Z,78.59
2019-04-26T18:13:16.453Z,78.00
2019-04-26T18:15:46.802Z,77.87
2019-04-26T18:18:34.218Z,78.56
2019-04-26T18:21:43.718Z,78.94
2019-04-26T18:24:13.589Z,79.79
2019-04-26T18:26:41.794Z,78.24
2019-04-26T18:29:10.084Z,78.66
2019-04-26T18:31:39.360Z,78.51
2019-04-26T18:34:07.706Z,78.98
2019-04-26T18:36:35.954Z,79.87
2019-04-26T18:39:06.962Z,81.21
2019-04-26T18:41:34.974Z,80.78
2019-04-26T18:44:03.269Z,81.44
2019-04-26T18:46:40.593Z,82.00
2019-04-26T18:49:11.351Z,83.03
2019-04-26T18:51:43.375Z,83.00
2019-04-26T18:54:32.870Z,82.84
2019-04-26T18:57:03.235Z,83.15
2019-04-26T18:59:34.031Z,83.04
2019-04-26T19:02:03.926Z,81.61
2019-04-26T19:04:33.608Z,82.25
2019-04-26T19:07:02.395Z,82.66
2019-04-26T19:09:45.309Z,83.26
2019-04-26T19:12:04.675Z,84.09
2019-04-26T19:14:49.817Z,85.22
2019-04-26T19:17:33.834Z,85.85
2019-04-26T19:20:23.698Z,85.96
2019-04-26T19:23:02.973Z,85.69
2019-04-26T19:25:34.472Z,86.15
2019-04-26T19:28:04.328Z,86.26
2019-04-26T19:30:31.465Z,86.46
2019-04-26T19:33:01.924Z,86.51
2019-04-26T19:35:30.269Z,86.03
2019-04-26T19:37:58.309Z,85.51
2019-04-26T19:40:27.459Z,85.33
2019-04-26T19:42:57.562Z,86.24
2019-04-26T19:45:52.018Z,86.52
2019-04-26T19:48:38.956Z,86.44
2019-04-26T19:51:29.763Z,86.80
2019-04-26T19:54:12.505Z,85.92
2019-04-26T19:57:03.781Z,86.28
2019-04-26T19:59:34.559Z,86.48
2019-04-26T20:02:04.252Z,87.26
2019-04-26T20:04:34.332Z,87.97
2019-04-26T20:07:02.689Z,88.01
2019-04-26T20:09:31.933Z,88.25
2019-04-26T20:11:59.527Z,88.77
2019-04-26T20:14:39.899Z,88.76
2019-04-26T20:16:57.515Z,88.63
2019-04-26T20:19:34.063Z,88.09
2019-04-26T20:21:56.005Z,87.40
2019-04-26T20:24:23.975Z,87.47
2019-04-26T20:26:52.617Z,87.83
2019-04-26T20:29:23.168Z,87.82
2019-04-26T20:31:57.736Z,87.86
2019-04-26T20:34:27.499Z,88.09
2019-04-26T20:36:55.734Z,88.60
2019-04-26T20:39:24.156Z,88.77
2019-04-26T20:42:01.065Z,88.93
2019-04-26T20:44:28.297Z,88.50
2019-04-26T20:46:52.753Z,88.57
2019-04-26T20:49:21.826Z,87.77
2019-04-26T20:51:51.924Z,87.48
2019-04-26T20:54:22.450Z,87.62
2019-04-26T20:56:55.344Z,87.42
2019-04-26T20:59:23.572Z,87.72
2019-04-26T21:02:03.294Z,87.76
2019-04-26T21:04:35.134Z,88.73
2019-04-26T21:06:51.759Z,89.14
2019-04-26T21:09:21.930Z,88.93
2019-04-26T21:11:51.657Z,89.03
2019-04-26T21:14:21.617Z,88.78
2019-04-26T21:16:50.704Z,89.23
2019-04-26T21:19:20.208Z,89.54
2019-04-26T21:21:52.327Z,89.77
2019-04-26T21:24:25.111Z,89.98
2019-04-26T21:27:19.172Z,89.62
2019-04-26T21:30:03.344Z,89.38
2019-04-26T21:32:59.340Z,88.48
2019-04-26T21:35:33.214Z,88.09
2019-04-26T21:38:10.019Z,88.27
2019-04-26T21:40:44.443Z,88.50
2019-04-26T21:43:14.847Z,88.25
2019-04-26T21:45:44.585Z,88.53
2019-04-26T21:48:15.144Z,88.44
2019-04-26T21:50:44.777Z,88.42
2019-04-26T21:53:14.346Z,88.86
2019-04-26T21:55:43.539Z,88.50
2019-04-26T21:58:14.246Z,89.05
2019-04-26T22:01:00.976Z,88.62
2019-04-26T22:03:31.360Z,89.33
2019-04-26T22:06:01.169Z,89.14
2019-04-26T22:08:33.022Z,88.77
2019-04-26T22:11:04.571Z,88.57
2019-04-26T22:13:58.294Z,88.14
2019-04-26T22:16:48.319Z,88.38
2019-04-26T22:19:38.224Z,88.87
2019-04-26T22:22:20.140Z,89.27
2019-04-26T22:24:49.456Z,89.80
2019-04-26T22:27:21.911Z,89.73
2019-04-26T22:29:51.754Z,89.42
2019-04-26T22:32:19.271Z,88.83
2019-04-26T22:34:47.792Z,89.39
2019-04-26T22:37:29.062Z,89.73
2019-04-26T22:39:47.300Z,90.03
2019-04-26T22:42:16.926Z,89.71
2019-04-26T22:44:55.290Z,89.79
2019-04-26T22:47:47.259Z,89.88
2019-04-26T22:50:20.908Z,89.81
2019-04-26T22:52:51.314Z,89.89
2019-04-26T22:55:22.114Z,89.75
2019-04-26T22:57:49.433Z,89.65
2019-04-26T23:00:15.518Z,89.17
2019-04-26T23:02:43.660Z,88.64
2019-04-26T23:05:13.969Z,88.32
2019-04-26T23:07:43.252Z,88.07
2019-04-26T23:10:13.314Z,88.32
2019-04-26T23:13:07.564Z,88.76
2019-04-26T23:15:47.964Z,88.66
2019-04-26T23:18:38.738Z,89.16
2019-04-26T23:21:21.231Z,89.23
2019-04-26T23:23:49.614Z,89.41
2019-04-26T23:26:17.875Z,89.58
2019-04-26T23:28:48.092Z,88.95
2019-04-26T23:31:16.590Z,88.46
2019-04-26T23:33:46.245Z,88.47
2019-04-26T23:36:18.360Z,88.34
2019-04-26T23:38:45.900Z,88.39
2019-04-26T23:41:14.702Z,88.63
2019-04-26T23:43:45.595Z,88.72
2019-04-26T23:46:14.777Z,88.71
2019-04-26T23:48:48.822Z,89.28
2019-04-26T23:51:14.994Z,89.65
2019-04-26T23:53:44.087Z,89.69
2019-04-26T23:56:16.181Z,89.73
2019-04-26T23:58:44.044Z,89.82
